sensor_id;sensor_type;location;lat;lon;timestamp;P1;durP1;ratioP1;P2;durP2;ratioP2
23358;SDS011;11851;50.796;4.372;2022-07-29T00:01:21;8.40;;;2.10;;
23358;SDS011;11851;50.796;4.372;2022-07-29T00:03:47;11.43;;;1.80;;
23358;SDS011;11851;50.796;4.372;2022-07-29T00:06:13;5.63;;;1.85;;
23358;SDS011;11851;50.796;4.372;2022-07-29T00:08:39;5.10;;;1.67;;
23358;SDS011;11851;50.796;4.372;2022-07-29T00:11:05;6.28;;;1.70;;
23358;SDS011;11851;50.796;4.372;2022-07-29T00:13:30;4.53;;;1.60;;
23358;SDS011;11851;50.796;4.372;2022-07-29T00:15:56;4.22;;;1.50;;
23358;SDS011;11851;50.796;4.372;2022-07-29T00:18:22;7.43;;;1.70;;
23358;SDS011;11851;50.796;4.372;2022-07-29T00:20:47;5.90;;;1.65;;
23358;SDS011;11851;50.796;4.372;2022-07-29T00:23:13;6.28;;;1.90;;
23358;SDS011;11851;50.796;4.372;2022-07-29T00:25:38;5.15;;;1.88;;
23358;SDS011;11851;50.796;4.372;2022-07-29T00:28:04;7.55;;;1.67;;
23358;SDS011;11851;50.796;4.372;2022-07-29T00:30:30;8.52;;;1.83;;
23358;SDS011;11851;50.796;4.372;2022-07-29T00:32:55;6.60;;;1.75;;
23358;SDS011;11851;50.796;4.372;2022-07-29T00:35:21;6.95;;;1.45;;
23358;SDS011;11851;50.796;4.372;2022-07-29T00:38:05;5.93;;;1.80;;
23358;SDS011;11851;50.796;4.372;2022-07-29T00:40:30;6.18;;;1.98;;
23358;SDS011;11851;50.796;4.372;2022-07-29T00:42:56;3.95;;;1.50;;
23358;SDS011;11851;50.796;4.372;2022-07-29T00:45:22;12.13;;;1.60;;
23358;SDS011;11851;50.796;4.372;2022-07-29T00:47:48;5.68;;;1.80;;
23358;SDS011;11851;50.796;4.372;2022-07-29T00:50:15;10.88;;;1.80;;
23358;SDS011;11851;50.796;4.372;2022-07-29T00:52:41;10.50;;;1.70;;
23358;SDS011;11851;50.796;4.372;2022-07-29T00:55:08;4.85;;;1.75;;
23358;SDS011;11851;50.796;4.372;2022-07-29T00:57:36;6.18;;;1.70;;
23358;SDS011;11851;50.796;4.372;2022-07-29T01:00:03;10.38;;;2.10;;
23358;SDS011;11851;50.796;4.372;2022-07-29T01:02:30;6.10;;;1.92;;
23358;SDS011;11851;50.796;4.372;2022-07-29T01:04:55;5.15;;;1.63;;
23358;SDS011;11851;50.796;4.372;2022-07-29T01:07:22;5.75;;;1.70;;
23358;SDS011;11851;50.796;4.372;2022-07-29T01:09:50;15.90;;;2.30;;
23358;SDS011;11851;50.796;4.372;2022-07-29T01:12:17;7.03;;;1.52;;
23358;SDS011;11851;50.796;4.372;2022-07-29T01:14:47;8.98;;;1.73;;
23358;SDS011;11851;50.796;4.372;2022-07-29T01:22:24;4.45;;;1.45;;
23358;SDS011;11851;50.796;4.372;2022-07-29T01:30:31;4.78;;;1.92;;
23358;SDS011;11851;50.796;4.372;2022-07-29T01:33:02;9.13;;;1.70;;
23358;SDS011;11851;50.796;4.372;2022-07-29T01:35:36;5.65;;;1.42;;
23358;SDS011;11851;50.796;4.372;2022-07-29T01:38:05;5.22;;;2.10;;
23358;SDS011;11851;50.796;4.372;2022-07-29T01:43:11;6.90;;;1.77;;
23358;SDS011;11851;50.796;4.372;2022-07-29T01:45:53;7.05;;;1.90;;
23358;SDS011;11851;50.796;4.372;2022-07-29T01:48:31;6.05;;;1.80;;
23358;SDS011;11851;50.796;4.372;2022-07-29T01:51:12;7.55;;;1.70;;
23358;SDS011;11851;50.796;4.372;2022-07-29T01:53:47;8.68;;;2.13;;
23358;SDS011;11851;50.796;4.372;2022-07-29T01:56:36;7.80;;;2.08;;
23358;SDS011;11851;50.796;4.372;2022-07-29T01:59:04;4.53;;;2.45;;
23358;SDS011;11851;50.796;4.372;2022-07-29T02:01:32;6.43;;;2.08;;
23358;SDS011;11851;50.796;4.372;2022-07-29T02:03:59;6.38;;;1.95;;
23358;SDS011;11851;50.796;4.372;2022-07-29T02:06:28;3.85;;;1.27;;
23358;SDS011;11851;50.796;4.372;2022-07-29T02:08:55;7.35;;;1.75;;
23358;SDS011;11851;50.796;4.372;2022-07-29T02:11:23;7.13;;;1.95;;
23358;SDS011;11851;50.796;4.372;2022-07-29T02:13:49;8.80;;;2.13;;
23358;SDS011;11851;50.796;4.372;2022-07-29T02:16:20;6.88;;;1.90;;
23358;SDS011;11851;50.796;4.372;2022-07-29T02:18:47;5.60;;;2.05;;
23358;SDS011;11851;50.796;4.372;2022-07-29T02:21:16;5.68;;;2.00;;
23358;SDS011;11851;50.796;4.372;2022-07-29T02:23:47;6.17;;;1.90;;
23358;SDS011;11851;50.796;4.372;2022-07-29T02:26:14;4.35;;;2.10;;
23358;SDS011;11851;50.796;4.372;2022-07-29T02:28:43;5.15;;;1.55;;
23358;SDS011;11851;50.796;4.372;2022-07-29T02:31:10;4.18;;;1.70;;
23358;SDS011;11851;50.796;4.372;2022-07-29T02:33:38;10.48;;;1.88;;
23358;SDS011;11851;50.796;4.372;2022-07-29T02:36:05;6.60;;;2.00;;
23358;SDS011;11851;50.796;4.372;2022-07-29T02:38:32;3.83;;;1.80;;
23358;SDS011;11851;50.796;4.372;2022-07-29T02:44:03;7.80;;;1.92;;
23358;SDS011;11851;50.796;4.372;2022-07-29T02:46:34;8.25;;;2.00;;
23358;SDS011;11851;50.796;4.372;2022-07-29T02:54:58;5.55;;;1.73;;
23358;SDS011;11851;50.796;4.372;2022-07-29T02:57:49;10.50;;;2.13;;
23358;SDS011;11851;50.796;4.372;2022-07-29T03:00:36;11.48;;;1.92;;
23358;SDS011;11851;50.796;4.372;2022-07-29T03:03:05;6.25;;;1.98;;
23358;SDS011;11851;50.796;4.372;2022-07-29T03:05:35;8.53;;;2.57;;
23358;SDS011;11851;50.796;4.372;2022-07-29T03:08:04;5.18;;;1.70;;
23358;SDS011;11851;50.796;4.372;2022-07-29T03:10:30;6.40;;;1.88;;
23358;SDS011;11851;50.796;4.372;2022-07-29T03:12:57;7.43;;;1.92;;
23358;SDS011;11851;50.796;4.372;2022-07-29T03:15:23;6.93;;;1.88;;
23358;SDS011;11851;50.796;4.372;2022-07-29T03:17:49;5.78;;;2.38;;
23358;SDS011;11851;50.796;4.372;2022-07-29T03:20:16;7.05;;;2.17;;
23358;SDS011;11851;50.796;4.372;2022-07-29T03:22:43;8.70;;;2.00;;
23358;SDS011;11851;50.796;4.372;2022-07-29T03:25:12;5.47;;;1.70;;
23358;SDS011;11851;50.796;4.372;2022-07-29T03:27:39;8.18;;;2.05;;
23358;SDS011;11851;50.796;4.372;2022-07-29T03:30:06;5.68;;;1.73;;
23358;SDS011;11851;50.796;4.372;2022-07-29T03:32:33;5.88;;;2.17;;
23358;SDS011;11851;50.796;4.372;2022-07-29T03:34:59;7.28;;;2.42;;
23358;SDS011;11851;50.796;4.372;2022-07-29T03:37:25;4.28;;;1.83;;
23358;SDS011;11851;50.796;4.372;2022-07-29T03:39:50;3.28;;;1.60;;
23358;SDS011;11851;50.796;4.372;2022-07-29T03:42:17;16.27;;;2.88;;
23358;SDS011;11851;50.796;4.372;2022-07-29T03:44:47;5.53;;;2.10;;
23358;SDS011;11851;50.796;4.372;2022-07-29T03:47:14;3.55;;;1.75;;
23358;SDS011;11851;50.796;4.372;2022-07-29T03:49:42;5.13;;;2.10;;
23358;SDS011;11851;50.796;4.372;2022-07-29T03:52:11;9.82;;;2.08;;
23358;SDS011;11851;50.796;4.372;2022-07-29T03:54:37;6.95;;;2.13;;
23358;SDS011;11851;50.796;4.372;2022-07-29T03:57:03;5.00;;;1.90;;
23358;SDS011;11851;50.796;4.372;2022-07-29T03:59:32;8.68;;;2.28;;
23358;SDS011;11851;50.796;4.372;2022-07-29T04:02:04;4.40;;;2.58;;
23358;SDS011;11851;50.796;4.372;2022-07-29T04:04:34;5.88;;;2.00;;
23358;SDS011;11851;50.796;4.372;2022-07-29T04:07:01;9.65;;;2.05;;
23358;SDS011;11851;50.796;4.372;2022-07-29T04:09:26;8.30;;;2.40;;
23358;SDS011;11851;50.796;4.372;2022-07-29T04:11:52;5.38;;;2.60;;
23358;SDS011;11851;50.796;4.372;2022-07-29T04:14:18;8.23;;;2.17;;
23358;SDS011;11851;50.796;4.372;2022-07-29T04:16:43;4.13;;;1.80;;
23358;SDS011;11851;50.796;4.372;2022-07-29T04:19:09;7.20;;;1.85;;
23358;SDS011;11851;50.796;4.372;2022-07-29T04:21:38;6.15;;;1.98;;
23358;SDS011;11851;50.796;4.372;2022-07-29T04:24:05;7.00;;;2.10;;
23358;SDS011;11851;50.796;4.372;2022-07-29T04:26:31;5.68;;;1.73;;
23358;SDS011;11851;50.796;4.372;2022-07-29T04:28:57;6.65;;;1.98;;
23358;SDS011;11851;50.796;4.372;2022-07-29T04:31:22;7.03;;;2.33;;
23358;SDS011;11851;50.796;4.372;2022-07-29T04:33:48;8.32;;;2.50;;
23358;SDS011;11851;50.796;4.372;2022-07-29T04:36:14;6.30;;;2.65;;
23358;SDS011;11851;50.796;4.372;2022-07-29T04:38:39;11.07;;;2.50;;
23358;SDS011;11851;50.796;4.372;2022-07-29T04:41:05;7.10;;;1.95;;
23358;SDS011;11851;50.796;4.372;2022-07-29T04:43:32;6.93;;;1.98;;
23358;SDS011;11851;50.796;4.372;2022-07-29T04:45:58;10.85;;;2.25;;
23358;SDS011;11851;50.796;4.372;2022-07-29T04:48:25;7.97;;;2.22;;
23358;SDS011;11851;50.796;4.372;2022-07-29T04:50:51;7.43;;;2.17;;
23358;SDS011;11851;50.796;4.372;2022-07-29T04:53:16;7.20;;;2.38;;
23358;SDS011;11851;50.796;4.372;2022-07-29T04:55:42;5.03;;;2.45;;
23358;SDS011;11851;50.796;4.372;2022-07-29T04:58:08;7.05;;;1.98;;
23358;SDS011;11851;50.796;4.372;2022-07-29T05:00:34;7.40;;;2.33;;
23358;SDS011;11851;50.796;4.372;2022-07-29T05:03:00;10.23;;;2.83;;
23358;SDS011;11851;50.796;4.372;2022-07-29T05:05:25;9.70;;;3.00;;
23358;SDS011;11851;50.796;4.372;2022-07-29T05:07:51;5.00;;;2.10;;
23358;SDS011;11851;50.796;4.372;2022-07-29T05:10:16;8.82;;;2.40;;
23358;SDS011;11851;50.796;4.372;2022-07-29T05:12:42;11.15;;;2.60;;
23358;SDS011;11851;50.796;4.372;2022-07-29T05:15:08;6.88;;;2.30;;
23358;SDS011;11851;50.796;4.372;2022-07-29T05:17:34;10.10;;;2.58;;
23358;SDS011;11851;50.796;4.372;2022-07-29T05:19:59;6.38;;;2.53;;
23358;SDS011;11851;50.796;4.372;2022-07-29T05:22:25;6.90;;;2.10;;
23358;SDS011;11851;50.796;4.372;2022-07-29T05:24:51;3.40;;;2.22;;
23358;SDS011;11851;50.796;4.372;2022-07-29T05:27:16;7.38;;;2.90;;
23358;SDS011;11851;50.796;4.372;2022-07-29T05:29:42;7.68;;;2.65;;
23358;SDS011;11851;50.796;4.372;2022-07-29T05:32:07;7.50;;;2.60;;
23358;SDS011;11851;50.796;4.372;2022-07-29T05:34:33;6.75;;;3.00;;
23358;SDS011;11851;50.796;4.372;2022-07-29T05:36:59;12.32;;;3.03;;
23358;SDS011;11851;50.796;4.372;2022-07-29T05:39:25;10.60;;;3.03;;
23358;SDS011;11851;50.796;4.372;2022-07-29T05:41:50;16.40;;;3.20;;
23358;SDS011;11851;50.796;4.372;2022-07-29T05:44:16;5.97;;;3.08;;
23358;SDS011;11851;50.796;4.372;2022-07-29T05:46:42;4.43;;;2.90;;
23358;SDS011;11851;50.796;4.372;2022-07-29T05:49:07;9.50;;;3.58;;
23358;SDS011;11851;50.796;4.372;2022-07-29T05:51:33;8.00;;;3.72;;
23358;SDS011;11851;50.796;4.372;2022-07-29T05:53:59;9.05;;;3.70;;
23358;SDS011;11851;50.796;4.372;2022-07-29T05:56:25;7.80;;;3.03;;
23358;SDS011;11851;50.796;4.372;2022-07-29T05:58:51;7.40;;;3.42;;
23358;SDS011;11851;50.796;4.372;2022-07-29T06:01:17;9.98;;;3.40;;
23358;SDS011;11851;50.796;4.372;2022-07-29T06:03:43;9.80;;;3.60;;
23358;SDS011;11851;50.796;4.372;2022-07-29T06:06:08;7.00;;;3.30;;
23358;SDS011;11851;50.796;4.372;2022-07-29T06:08:34;8.85;;;3.50;;
23358;SDS011;11851;50.796;4.372;2022-07-29T06:11:01;8.25;;;3.55;;
23358;SDS011;11851;50.796;4.372;2022-07-29T06:13:27;7.50;;;3.75;;
23358;SDS011;11851;50.796;4.372;2022-07-29T06:15:52;10.38;;;3.25;;
23358;SDS011;11851;50.796;4.372;2022-07-29T06:18:18;9.73;;;3.55;;
23358;SDS011;11851;50.796;4.372;2022-07-29T06:20:45;7.10;;;3.30;;
23358;SDS011;11851;50.796;4.372;2022-07-29T06:23:11;11.55;;;3.83;;
23358;SDS011;11851;50.796;4.372;2022-07-29T06:25:39;11.80;;;3.28;;
23358;SDS011;11851;50.796;4.372;2022-07-29T06:28:05;6.25;;;3.25;;
23358;SDS011;11851;50.796;4.372;2022-07-29T06:30:31;9.05;;;3.47;;
23358;SDS011;11851;50.796;4.372;2022-07-29T06:32:57;8.25;;;3.47;;
23358;SDS011;11851;50.796;4.372;2022-07-29T06:35:22;9.30;;;4.05;;
23358;SDS011;11851;50.796;4.372;2022-07-29T06:37:48;6.47;;;3.95;;
23358;SDS011;11851;50.796;4.372;2022-07-29T06:40:14;11.13;;;4.30;;
23358;SDS011;11851;50.796;4.372;2022-07-29T06:42:59;8.23;;;3.03;;
23358;SDS011;11851;50.796;4.372;2022-07-29T06:45:24;7.55;;;3.60;;
23358;SDS011;11851;50.796;4.372;2022-07-29T06:47:50;8.27;;;3.85;;
23358;SDS011;11851;50.796;4.372;2022-07-29T06:50:17;14.00;;;4.47;;
23358;SDS011;11851;50.796;4.372;2022-07-29T06:52:42;7.10;;;3.90;;
23358;SDS011;11851;50.796;4.372;2022-07-29T06:55:08;9.00;;;4.25;;
23358;SDS011;11851;50.796;4.372;2022-07-29T06:57:34;7.95;;;3.65;;
23358;SDS011;11851;50.796;4.372;2022-07-29T06:59:59;6.75;;;3.83;;
23358;SDS011;11851;50.796;4.372;2022-07-29T07:02:25;11.52;;;3.78;;
23358;SDS011;11851;50.796;4.372;2022-07-29T07:04:51;7.90;;;4.05;;
23358;SDS011;11851;50.796;4.372;2022-07-29T07:07:18;8.43;;;3.95;;
23358;SDS011;11851;50.796;4.372;2022-07-29T07:09:43;6.95;;;3.90;;
23358;SDS011;11851;50.796;4.372;2022-07-29T07:12:09;9.43;;;3.90;;
23358;SDS011;11851;50.796;4.372;2022-07-29T07:14:34;13.68;;;4.00;;
23358;SDS011;11851;50.796;4.372;2022-07-29T07:17:00;8.60;;;4.05;;
23358;SDS011;11851;50.796;4.372;2022-07-29T07:19:28;7.60;;;3.92;;
23358;SDS011;11851;50.796;4.372;2022-07-29T07:21:53;10.00;;;4.18;;
23358;SDS011;11851;50.796;4.372;2022-07-29T07:24:19;8.80;;;3.53;;
23358;SDS011;11851;50.796;4.372;2022-07-29T07:26:45;8.50;;;3.47;;
23358;SDS011;11851;50.796;4.372;2022-07-29T07:29:10;11.02;;;3.40;;
23358;SDS011;11851;50.796;4.372;2022-07-29T07:31:36;6.95;;;3.78;;
23358;SDS011;11851;50.796;4.372;2022-07-29T07:34:02;12.95;;;3.80;;
23358;SDS011;11851;50.796;4.372;2022-07-29T07:36:28;9.95;;;3.80;;
23358;SDS011;11851;50.796;4.372;2022-07-29T07:38:54;8.88;;;4.05;;
23358;SDS011;11851;50.796;4.372;2022-07-29T07:41:20;9.68;;;4.55;;
23358;SDS011;11851;50.796;4.372;2022-07-29T07:43:46;9.77;;;3.60;;
23358;SDS011;11851;50.796;4.372;2022-07-29T07:46:11;10.95;;;4.30;;
23358;SDS011;11851;50.796;4.372;2022-07-29T07:48:37;11.80;;;4.13;;
23358;SDS011;11851;50.796;4.372;2022-07-29T07:51:03;9.85;;;4.15;;
23358;SDS011;11851;50.796;4.372;2022-07-29T07:53:28;10.10;;;4.07;;
23358;SDS011;11851;50.796;4.372;2022-07-29T07:55:55;15.15;;;4.32;;
23358;SDS011;11851;50.796;4.372;2022-07-29T07:58:21;11.88;;;4.82;;
23358;SDS011;11851;50.796;4.372;2022-07-29T08:00:46;8.98;;;3.97;;
23358;SDS011;11851;50.796;4.372;2022-07-29T08:03:12;10.48;;;4.47;;
23358;SDS011;11851;50.796;4.372;2022-07-29T08:05:38;9.60;;;3.90;;
23358;SDS011;11851;50.796;4.372;2022-07-29T08:08:05;12.68;;;4.00;;
23358;SDS011;11851;50.796;4.372;2022-07-29T08:10:31;8.15;;;3.47;;
23358;SDS011;11851;50.796;4.372;2022-07-29T08:13:14;7.88;;;3.92;;
23358;SDS011;11851;50.796;4.372;2022-07-29T08:15:40;11.77;;;4.65;;
23358;SDS011;11851;50.796;4.372;2022-07-29T08:18:07;8.43;;;3.55;;
23358;SDS011;11851;50.796;4.372;2022-07-29T08:20:33;9.45;;;4.18;;
23358;SDS011;11851;50.796;4.372;2022-07-29T08:23:01;9.35;;;4.03;;
23358;SDS011;11851;50.796;4.372;2022-07-29T08:25:27;10.50;;;4.18;;
23358;SDS011;11851;50.796;4.372;2022-07-29T08:27:53;6.75;;;3.55;;
23358;SDS011;11851;50.796;4.372;2022-07-29T08:30:18;9.85;;;4.43;;
23358;SDS011;11851;50.796;4.372;2022-07-29T08:32:44;7.60;;;3.53;;
23358;SDS011;11851;50.796;4.372;2022-07-29T08:35:10;8.60;;;3.65;;
23358;SDS011;11851;50.796;4.372;2022-07-29T08:37:35;10.57;;;3.70;;
23358;SDS011;11851;50.796;4.372;2022-07-29T08:40:01;8.55;;;3.28;;
23358;SDS011;11851;50.796;4.372;2022-07-29T08:42:27;7.88;;;3.70;;
23358;SDS011;11851;50.796;4.372;2022-07-29T08:44:53;7.03;;;3.40;;
23358;SDS011;11851;50.796;4.372;2022-07-29T08:47:19;9.25;;;3.55;;
23358;SDS011;11851;50.796;4.372;2022-07-29T08:49:45;6.85;;;2.60;;
23358;SDS011;11851;50.796;4.372;2022-07-29T08:52:13;6.68;;;2.17;;
23358;SDS011;11851;50.796;4.372;2022-07-29T08:54:39;8.23;;;2.90;;
23358;SDS011;11851;50.796;4.372;2022-07-29T08:57:09;8.27;;;3.20;;
23358;SDS011;11851;50.796;4.372;2022-07-29T08:59:37;11.95;;;3.30;;
23358;SDS011;11851;50.796;4.372;2022-07-29T09:02:05;5.55;;;2.63;;
23358;SDS011;11851;50.796;4.372;2022-07-29T09:04:43;9.77;;;2.67;;
23358;SDS011;11851;50.796;4.372;2022-07-29T09:07:10;7.28;;;2.60;;
23358;SDS011;11851;50.796;4.372;2022-07-29T09:09:44;6.13;;;2.58;;
23358;SDS011;11851;50.796;4.372;2022-07-29T09:12:10;6.28;;;2.58;;
23358;SDS011;11851;50.796;4.372;2022-07-29T09:14:39;5.38;;;2.00;;
23358;SDS011;11851;50.796;4.372;2022-07-29T09:17:06;4.13;;;2.05;;
23358;SDS011;11851;50.796;4.372;2022-07-29T09:19:35;5.03;;;2.28;;
23358;SDS011;11851;50.796;4.372;2022-07-29T09:22:03;5.50;;;2.28;;
23358;SDS011;11851;50.796;4.372;2022-07-29T09:27:00;6.53;;;1.85;;
23358;SDS011;11851;50.796;4.372;2022-07-29T09:29:26;6.75;;;2.25;;
23358;SDS011;11851;50.796;4.372;2022-07-29T09:31:53;4.90;;;1.95;;
23358;SDS011;11851;50.796;4.372;2022-07-29T09:34:23;7.88;;;2.67;;
23358;SDS011;11851;50.796;4.372;2022-07-29T09:36:50;4.85;;;1.73;;
23358;SDS011;11851;50.796;4.372;2022-07-29T09:39:28;6.65;;;2.22;;
23358;SDS011;11851;50.796;4.372;2022-07-29T09:42:03;8.93;;;2.83;;
23358;SDS011;11851;50.796;4.372;2022-07-29T09:47:15;9.98;;;2.50;;
23358;SDS011;11851;50.796;4.372;2022-07-29T09:50:00;9.05;;;2.55;;
23358;SDS011;11851;50.796;4.372;2022-07-29T09:52:29;4.63;;;2.40;;
23358;SDS011;11851;50.796;4.372;2022-07-29T09:55:05;10.23;;;2.40;;
23358;SDS011;11851;50.796;4.372;2022-07-29T09:57:31;4.90;;;2.25;;
23358;SDS011;11851;50.796;4.372;2022-07-29T09:59:58;10.40;;;2.88;;
23358;SDS011;11851;50.796;4.372;2022-07-29T10:02:28;9.90;;;2.58;;
23358;SDS011;11851;50.796;4.372;2022-07-29T10:04:55;4.65;;;1.88;;
23358;SDS011;11851;50.796;4.372;2022-07-29T10:07:21;9.48;;;2.30;;
23358;SDS011;11851;50.796;4.372;2022-07-29T10:09:54;7.95;;;2.30;;
23358;SDS011;11851;50.796;4.372;2022-07-29T10:12:21;8.55;;;2.80;;
23358;SDS011;11851;50.796;4.372;2022-07-29T10:14:48;5.85;;;2.08;;
23358;SDS011;11851;50.796;4.372;2022-07-29T10:17:14;10.38;;;2.30;;
23358;SDS011;11851;50.796;4.372;2022-07-29T10:19:41;6.32;;;2.03;;
23358;SDS011;11851;50.796;4.372;2022-07-29T10:22:08;6.30;;;2.30;;
23358;SDS011;11851;50.796;4.372;2022-07-29T10:24:36;5.32;;;1.95;;
23358;SDS011;11851;50.796;4.372;2022-07-29T10:27:04;7.55;;;2.60;;
23358;SDS011;11851;50.796;4.372;2022-07-29T10:29:31;10.10;;;2.47;;
23358;SDS011;11851;50.796;4.372;2022-07-29T10:32:05;5.25;;;2.33;;
23358;SDS011;11851;50.796;4.372;2022-07-29T10:38:02;6.68;;;2.72;;
23358;SDS011;11851;50.796;4.372;2022-07-29T10:43:51;5.65;;;2.20;;
23358;SDS011;11851;50.796;4.372;2022-07-29T10:46:28;7.45;;;2.58;;
23358;SDS011;11851;50.796;4.372;2022-07-29T10:49:21;10.93;;;2.17;;
23358;SDS011;11851;50.796;4.372;2022-07-29T10:52:07;6.10;;;2.33;;
23358;SDS011;11851;50.796;4.372;2022-07-29T10:57:26;12.63;;;2.78;;
23358;SDS011;11851;50.796;4.372;2022-07-29T11:05:04;9.32;;;2.40;;
23358;SDS011;11851;50.796;4.372;2022-07-29T11:07:33;6.53;;;1.98;;
23358;SDS011;11851;50.796;4.372;2022-07-29T11:31:41;4.25;;;2.00;;
23358;SDS011;11851;50.796;4.372;2022-07-29T11:34:22;3.35;;;1.70;;
23358;SDS011;11851;50.796;4.372;2022-07-29T11:39:34;9.63;;;3.17;;
23358;SDS011;11851;50.796;4.372;2022-07-29T11:45:02;5.35;;;2.10;;
23358;SDS011;11851;50.796;4.372;2022-07-29T11:47:36;6.05;;;2.38;;
23358;SDS011;11851;50.796;4.372;2022-07-29T11:50:07;8.70;;;2.20;;
23358;SDS011;11851;50.796;4.372;2022-07-29T11:52:37;7.10;;;2.30;;
23358;SDS011;11851;50.796;4.372;2022-07-29T11:55:16;9.35;;;2.42;;
23358;SDS011;11851;50.796;4.372;2022-07-29T12:00:51;9.70;;;3.40;;
23358;SDS011;11851;50.796;4.372;2022-07-29T12:03:25;12.88;;;2.55;;
23358;SDS011;11851;50.796;4.372;2022-07-29T12:05:51;10.68;;;3.38;;
23358;SDS011;11851;50.796;4.372;2022-07-29T12:08:20;5.72;;;3.17;;
23358;SDS011;11851;50.796;4.372;2022-07-29T12:10:48;7.90;;;3.80;;
23358;SDS011;11851;50.796;4.372;2022-07-29T12:13:16;6.82;;;3.22;;
23358;SDS011;11851;50.796;4.372;2022-07-29T12:15:51;9.13;;;3.17;;
23358;SDS011;11851;50.796;4.372;2022-07-29T12:18:18;11.18;;;3.20;;
23358;SDS011;11851;50.796;4.372;2022-07-29T12:20:45;7.68;;;2.95;;
23358;SDS011;11851;50.796;4.372;2022-07-29T12:23:11;5.55;;;2.88;;
23358;SDS011;11851;50.796;4.372;2022-07-29T12:25:37;7.35;;;2.25;;
23358;SDS011;11851;50.796;4.372;2022-07-29T12:28:05;6.43;;;2.92;;
23358;SDS011;11851;50.796;4.372;2022-07-29T12:33:23;10.68;;;3.05;;
23358;SDS011;11851;50.796;4.372;2022-07-29T12:35:54;14.07;;;3.38;;
23358;SDS011;11851;50.796;4.372;2022-07-29T12:38:23;10.97;;;2.87;;
23358;SDS011;11851;50.796;4.372;2022-07-29T12:40:49;6.60;;;2.92;;
23358;SDS011;11851;50.796;4.372;2022-07-29T12:43:19;9.63;;;3.25;;
23358;SDS011;11851;50.796;4.372;2022-07-29T12:45:47;6.13;;;2.50;;
23358;SDS011;11851;50.796;4.372;2022-07-29T12:48:15;7.72;;;2.80;;
23358;SDS011;11851;50.796;4.372;2022-07-29T12:53:23;6.30;;;2.70;;
23358;SDS011;11851;50.796;4.372;2022-07-29T12:55:50;10.40;;;2.88;;
23358;SDS011;11851;50.796;4.372;2022-07-29T12:58:31;7.82;;;2.70;;
23358;SDS011;11851;50.796;4.372;2022-07-29T13:03:25;11.70;;;2.78;;
23358;SDS011;11851;50.796;4.372;2022-07-29T13:05:52;5.95;;;3.10;;
23358;SDS011;11851;50.796;4.372;2022-07-29T13:08:17;12.02;;;3.08;;
23358;SDS011;11851;50.796;4.372;2022-07-29T13:10:44;8.82;;;2.72;;
23358;SDS011;11851;50.796;4.372;2022-07-29T13:13:11;5.95;;;2.50;;
23358;SDS011;11851;50.796;4.372;2022-07-29T13:15:40;7.80;;;2.25;;
23358;SDS011;11851;50.796;4.372;2022-07-29T13:20:55;8.50;;;2.28;;
23358;SDS011;11851;50.796;4.372;2022-07-29T13:23:21;10.07;;;2.80;;
23358;SDS011;11851;50.796;4.372;2022-07-29T13:25:47;6.18;;;2.42;;
23358;SDS011;11851;50.796;4.372;2022-07-29T13:28:13;5.22;;;2.10;;
23358;SDS011;11851;50.796;4.372;2022-07-29T13:30:41;5.28;;;1.83;;
23358;SDS011;11851;50.796;4.372;2022-07-29T13:33:07;9.02;;;2.30;;
23358;SDS011;11851;50.796;4.372;2022-07-29T13:35:33;4.57;;;1.88;;
23358;SDS011;11851;50.796;4.372;2022-07-29T13:37:58;9.38;;;2.25;;
23358;SDS011;11851;50.796;4.372;2022-07-29T13:40:24;9.95;;;1.67;;
23358;SDS011;11851;50.796;4.372;2022-07-29T13:42:50;4.22;;;1.92;;
23358;SDS011;11851;50.796;4.372;2022-07-29T13:45:16;6.60;;;2.03;;
23358;SDS011;11851;50.796;4.372;2022-07-29T13:47:42;7.53;;;2.05;;
23358;SDS011;11851;50.796;4.372;2022-07-29T13:50:08;6.07;;;2.10;;
23358;SDS011;11851;50.796;4.372;2022-07-29T13:52:35;6.00;;;1.80;;
23358;SDS011;11851;50.796;4.372;2022-07-29T13:55:02;5.90;;;2.38;;
23358;SDS011;11851;50.796;4.372;2022-07-29T13:57:28;4.18;;;1.65;;
23358;SDS011;11851;50.796;4.372;2022-07-29T13:59:54;7.35;;;2.00;;
23358;SDS011;11851;50.796;4.372;2022-07-29T14:02:20;3.33;;;1.77;;
23358;SDS011;11851;50.796;4.372;2022-07-29T14:04:46;5.50;;;1.73;;
23358;SDS011;11851;50.796;4.372;2022-07-29T14:07:12;8.43;;;2.10;;
23358;SDS011;11851;50.796;4.372;2022-07-29T14:09:38;6.95;;;1.88;;
23358;SDS011;11851;50.796;4.372;2022-07-29T14:12:04;8.75;;;1.90;;
23358;SDS011;11851;50.796;4.372;2022-07-29T14:14:29;8.10;;;2.10;;
23358;SDS011;11851;50.796;4.372;2022-07-29T14:16:57;8.98;;;2.10;;
23358;SDS011;11851;50.796;4.372;2022-07-29T14:19:23;5.93;;;1.90;;
23358;SDS011;11851;50.796;4.372;2022-07-29T14:21:49;5.05;;;1.60;;
23358;SDS011;11851;50.796;4.372;2022-07-29T14:24:14;3.90;;;1.50;;
23358;SDS011;11851;50.796;4.372;2022-07-29T14:26:40;8.63;;;1.40;;
23358;SDS011;11851;50.796;4.372;2022-07-29T14:29:05;4.38;;;1.60;;
23358;SDS011;11851;50.796;4.372;2022-07-29T14:31:32;5.45;;;1.52;;
23358;SDS011;11851;50.796;4.372;2022-07-29T14:33:57;9.38;;;1.65;;
23358;SDS011;11851;50.796;4.372;2022-07-29T14:36:23;4.82;;;1.33;;
23358;SDS011;11851;50.796;4.372;2022-07-29T14:38:48;5.85;;;1.60;;
23358;SDS011;11851;50.796;4.372;2022-07-29T14:41:14;7.45;;;1.80;;
23358;SDS011;11851;50.796;4.372;2022-07-29T14:43:40;5.15;;;1.65;;
23358;SDS011;11851;50.796;4.372;2022-07-29T14:46:06;4.35;;;1.40;;
23358;SDS011;11851;50.796;4.372;2022-07-29T14:48:32;4.00;;;1.65;;
23358;SDS011;11851;50.796;4.372;2022-07-29T14:50:58;4.43;;;2.13;;
23358;SDS011;11851;50.796;4.372;2022-07-29T14:53:24;4.57;;;1.55;;
23358;SDS011;11851;50.796;4.372;2022-07-29T14:55:49;7.55;;;1.42;;
23358;SDS011;11851;50.796;4.372;2022-07-29T14:58:15;11.05;;;1.60;;
23358;SDS011;11851;50.796;4.372;2022-07-29T15:00:41;6.97;;;2.03;;
23358;SDS011;11851;50.796;4.372;2022-07-29T15:03:07;5.35;;;1.88;;
23358;SDS011;11851;50.796;4.372;2022-07-29T15:05:35;5.03;;;1.35;;
23358;SDS011;11851;50.796;4.372;2022-07-29T15:08:01;3.38;;;1.30;;
23358;SDS011;11851;50.796;4.372;2022-07-29T15:10:27;5.18;;;1.30;;
23358;SDS011;11851;50.796;4.372;2022-07-29T15:12:53;3.70;;;1.40;;
23358;SDS011;11851;50.796;4.372;2022-07-29T15:15:19;7.50;;;1.50;;
23358;SDS011;11851;50.796;4.372;2022-07-29T15:17:45;4.65;;;1.45;;
23358;SDS011;11851;50.796;4.372;2022-07-29T15:20:11;4.10;;;1.42;;
23358;SDS011;11851;50.796;4.372;2022-07-29T15:22:37;4.70;;;1.25;;
23358;SDS011;11851;50.796;4.372;2022-07-29T15:25:03;3.35;;;1.33;;
23358;SDS011;11851;50.796;4.372;2022-07-29T15:27:30;2.67;;;1.20;;
23358;SDS011;11851;50.796;4.372;2022-07-29T15:29:55;5.13;;;1.50;;
23358;SDS011;11851;50.796;4.372;2022-07-29T15:32:21;3.53;;;1.33;;
23358;SDS011;11851;50.796;4.372;2022-07-29T15:34:47;5.53;;;1.50;;
23358;SDS011;11851;50.796;4.372;2022-07-29T15:37:12;9.00;;;2.03;;
23358;SDS011;11851;50.796;4.372;2022-07-29T15:39:38;4.60;;;1.65;;
23358;SDS011;11851;50.796;4.372;2022-07-29T15:42:04;3.88;;;2.03;;
23358;SDS011;11851;50.796;4.372;2022-07-29T15:44:29;5.45;;;1.90;;
23358;SDS011;11851;50.796;4.372;2022-07-29T15:46:55;4.90;;;1.92;;
23358;SDS011;11851;50.796;4.372;2022-07-29T15:49:36;7.30;;;1.70;;
23358;SDS011;11851;50.796;4.372;2022-07-29T15:52:05;6.03;;;1.85;;
23358;SDS011;11851;50.796;4.372;2022-07-29T15:54:32;4.03;;;1.95;;
23358;SDS011;11851;50.796;4.372;2022-07-29T15:56:59;5.15;;;1.95;;
23358;SDS011;11851;50.796;4.372;2022-07-29T15:59:25;4.93;;;2.10;;
23358;SDS011;11851;50.796;4.372;2022-07-29T16:01:51;5.30;;;2.20;;
23358;SDS011;11851;50.796;4.372;2022-07-29T16:04:17;8.38;;;2.20;;
23358;SDS011;11851;50.796;4.372;2022-07-29T16:06:43;3.45;;;1.73;;
23358;SDS011;11851;50.796;4.372;2022-07-29T16:09:09;10.23;;;1.88;;
23358;SDS011;11851;50.796;4.372;2022-07-29T16:11:35;4.55;;;1.67;;